Time;durP1;ratioP1;P1;durP2;ratioP2;P2;SDS_P1;SDS_P2;PMS_P1;PMS_P2;Temp;Humidity;BMP_temperature;BMP_pressure;BME280_temperature;BME280_humidity;BME280_pressure;Samples;Min_cycle;Max_cycle;Signal;HPM_P1;HPM_P2
2023/04/13 00:00:55;;;;;;;1.98;0.85;;;;;;;6.82;100.00;97293.03;4177430;28;20200;-48
2023/04/13 00:02:59;;;;;;;1.33;0.85;;;;;;;6.76;100.00;97296.75;4172871;28;20283;-48
2023/04/13 00:05:02;;;;;;;0.88;0.88;;;;;;;6.72;100.00;97290.19;4170494;28;20255;-48
2023/04/13 00:07:04;;;;;;;1.17;0.95;;;;;;;6.77;100.00;97291.03;4199036;28;20270;-48
2023/04/13 00:09:06;;;;;;;1.13;1.00;;;;;;;6.74;100.00;97286.13;4176201;28;20216;-47
2023/04/13 00:11:09;;;;;;;3.40;1.13;;;;;;;6.69;100.00;97282.56;4192958;28;20237;-48
2023/04/13 00:13:10;;;;;;;1.83;0.95;;;;;;;6.70;100.00;97297.78;4167988;28;20208;-47
2023/04/13 00:15:18;;;;;;;2.03;0.90;;;;;;;6.74;100.00;97279.88;4166604;28;20399;-48
2023/04/13 00:17:19;;;;;;;1.10;1.10;;;;;;;6.67;100.00;97269.22;4175832;28;20285;-47
2023/04/13 00:19:22;;;;;;;2.45;1.23;;;;;;;6.66;100.00;97277.63;4168664;28;20208;-47
2023/04/13 00:21:24;;;;;;;1.45;1.30;;;;;;;6.64;100.00;97277.06;4183945;28;20230;-48
2023/04/13 00:23:26;;;;;;;1.33;1.23;;;;;;;6.70;100.00;97267.88;4164585;28;20300;-47
2023/04/13 00:25:28;;;;;;;2.90;1.05;;;;;;;6.65;100.00;97276.81;4175600;28;20406;-47
2023/04/13 00:27:29;;;;;;;1.13;0.95;;;;;;;6.57;100.00;97268.28;4192905;28;20231;-48
2023/04/13 00:29:31;;;;;;;1.95;0.73;;;;;;;6.59;100.00;97271.56;4170419;28;20252;-48
2023/04/13 00:31:33;;;;;;;0.93;0.70;;;;;;;6.56;100.00;97272.09;4168430;28;20205;-47
2023/04/13 00:33:35;;;;;;;0.77;0.77;;;;;;;6.59;100.00;97271.56;4171334;28;20295;-48
2023/04/13 00:35:36;;;;;;;2.25;0.90;;;;;;;6.51;100.00;97266.59;4169464;28;20208;-48
2023/04/13 00:37:38;;;;;;;0.93;0.82;;;;;;;6.64;100.00;97266.19;4188754;28;20232;-48
2023/04/13 00:39:42;;;;;;;2.45;1.25;;;;;;;6.52;100.00;97265.50;4174322;28;20648;-48
2023/04/13 00:41:43;;;;;;;1.17;0.60;;;;;;;6.58;99.91;97269.91;4176522;28;20228;-48
2023/04/13 00:43:45;;;;;;;3.33;0.90;;;;;;;6.59;98.68;97263.41;4189102;28;20286;-49
2023/04/13 00:45:47;;;;;;;2.40;1.00;;;;;;;6.57;98.54;97258.22;4174742;28;20234;-48
2023/04/13 00:47:49;;;;;;;1.60;0.98;;;;;;;6.62;97.27;97254.75;4159869;28;20270;-48
2023/04/13 00:49:53;;;;;;;8.02;1.05;;;;;;;6.58;97.52;97261.78;4172129;28;20204;-48
2023/04/13 00:51:55;;;;;;;1.90;0.95;;;;;;;6.57;98.03;97257.41;4167690;28;20219;-48
2023/04/13 00:53:57;;;;;;;2.17;0.90;;;;;;;6.65;96.75;97248.81;4166184;28;20729;-47
2023/04/13 00:56:00;;;;;;;5.15;1.95;;;;;;;6.57;97.30;97254.69;4159028;28;20228;-49
2023/04/13 00:58:02;;;;;;;2.20;0.95;;;;;;;6.52;97.23;97254.63;4170810;28;20471;-48
2023/04/13 01:00:11;;;;;;;2.38;1.10;;;;;;;6.55;96.62;97249.50;4166655;28;20694;-48
2023/04/13 01:02:14;;;;;;;8.45;1.27;;;;;;;6.47;96.32;97260.00;4166979;28;20214;-48
2023/04/13 01:04:18;;;;;;;2.15;1.02;;;;;;;6.53;96.42;97259.00;4184073;28;20207;-48
2023/04/13 01:06:27;;;;;;;1.25;1.10;;;;;;;6.51;96.56;97264.69;4187053;28;20708;-48
2023/04/13 01:08:35;;;;;;;1.23;0.73;;;;;;;6.50;96.66;97256.78;4163750;28;20204;-48
2023/04/13 01:11:10;;;;;;;1.85;1.38;;;;;;;6.55;96.19;97262.28;4174813;28;20662;-48
2023/04/13 01:13:20;;;;;;;2.53;1.10;;;;;;;6.56;95.50;97258.50;4174078;28;20251;-47
2023/04/13 01:15:22;;;;;;;5.32;1.65;;;;;;;6.58;96.38;97240.88;4199976;28;20641;-48
2023/04/13 01:17:27;;;;;;;3.15;0.95;;;;;;;6.55;95.95;97243.28;4173864;28;20336;-48
2023/04/13 01:19:32;;;;;;;9.77;1.35;;;;;;;6.53;96.15;97239.97;4169870;28;20717;-48
2023/04/13 01:21:34;;;;;;;1.10;0.80;;;;;;;6.52;96.14;97243.75;4167646;28;20210;-48
2023/04/13 01:23:39;;;;;;;1.70;0.90;;;;;;;6.46;97.66;97233.91;4166460;28;20236;-48
2023/04/13 01:25:49;;;;;;;1.85;1.02;;;;;;;6.40;97.30;97224.06;4165241;28;20674;-47
2023/04/13 01:28:00;;;;;;;3.58;1.30;;;;;;;6.37;97.60;97230.03;4166238;28;20610;-48
2023/04/13 01:30:03;;;;;;;1.02;0.90;;;;;;;6.39;97.35;97227.88;4176667;28;20295;-48
2023/04/13 01:32:05;;;;;;;3.40;1.02;;;;;;;6.38;97.93;97221.63;4176140;28;20243;-48
2023/04/13 01:34:07;;;;;;;2.88;1.50;;;;;;;6.34;98.46;97208.78;4168331;28;20247;-47
2023/04/13 01:36:10;;;;;;;2.05;0.98;;;;;;;6.36;97.88;97218.31;4179020;28;20740;-48
2023/04/13 01:38:13;;;;;;;1.42;1.02;;;;;;;6.43;97.65;97218.94;4167569;28;20640;-48
2023/04/13 01:40:14;;;;;;;5.03;1.15;;;;;;;6.47;97.34;97230.13;4178884;28;20239;-48
2023/04/13 01:42:17;;;;;;;0.85;0.75;;;;;;;6.46;97.90;97218.44;4169592;28;20254;-48
2023/04/13 01:44:19;;;;;;;2.83;1.30;;;;;;;6.50;97.23;97218.75;4187191;28;20211;-48
2023/04/13 01:46:24;;;;;;;2.28;1.35;;;;;;;6.51;96.80;97225.81;4157006;28;20998;-48
2023/04/13 01:48:44;;;;;;;2.28;0.95;;;;;;;6.57;95.87;97222.09;4170627;28;20235;-48
2023/04/13 01:51:15;;;;;;;7.07;1.08;;;;;;;6.61;96.41;97225.91;4169023;28;20291;-48
2023/04/13 01:53:19;;;;;;;1.83;0.90;;;;;;;6.61;95.62;97220.47;4163012;28;20235;-48
2023/04/13 01:55:22;;;;;;;2.70;1.67;;;;;;;6.63;95.61;97212.91;4179826;28;20208;-48
2023/04/13 02:00:46;;;;;;;3.13;0.90;;;;;;;6.70;95.58;97219.75;4169112;28;20302;-48
2023/04/13 02:02:48;;;;;;;1.25;0.90;;;;;;;6.67;95.94;97219.47;4195868;28;20657;-48
2023/04/13 02:04:50;;;;;;;1.25;0.80;;;;;;;6.73;95.26;97218.44;4188635;28;20621;-48
2023/04/13 02:06:52;;;;;;;1.13;0.88;;;;;;;6.74;94.99;97228.22;4168820;28;20225;-48
2023/04/13 02:08:53;;;;;;;3.78;0.95;;;;;;;6.77;94.86;97236.69;4172777;28;20201;-49
2023/04/13 02:10:56;;;;;;;4.70;1.20;;;;;;;6.73;95.19;97224.69;4161849;28;20209;-48
2023/04/13 02:12:58;;;;;;;1.33;1.20;;;;;;;6.77;94.58;97231.25;4168395;28;20306;-48
2023/04/13 02:15:00;;;;;;;2.35;1.05;;;;;;;6.80;94.12;97233.47;4162278;28;20291;-47
2023/04/13 02:17:02;;;;;;;3.10;1.10;;;;;;;6.80;94.10;97240.78;4177316;28;20282;-48
2023/04/13 02:19:03;;;;;;;2.83;0.98;;;;;;;6.83;93.51;97240.28;4175533;28;20235;-48
2023/04/13 02:21:10;;;;;;;6.43;1.15;;;;;;;6.84;93.26;97236.50;4167629;28;20629;-48
2023/04/13 02:23:13;;;;;;;3.17;1.30;;;;;;;6.82;93.95;97249.53;4167765;28;20211;-48
2023/04/13 02:25:16;;;;;;;1.40;1.30;;;;;;;6.82;93.58;97241.38;4172699;28;20214;-48
2023/04/13 02:27:17;;;;;;;3.28;1.40;;;;;;;6.80;94.12;97240.78;4205025;28;20592;-47
2023/04/13 02:29:19;;;;;;;4.30;1.60;;;;;;;6.82;93.42;97247.59;4190814;28;20678;-48
2023/04/13 02:31:22;;;;;;;2.47;0.88;;;;;;;6.83;94.07;97240.28;4173369;28;20215;-49
2023/04/13 02:33:26;;;;;;;4.97;0.90;;;;;;;6.86;93.43;97237.03;4169316;28;20330;-48
2023/04/13 02:35:29;;;;;;;1.10;1.00;;;;;;;6.86;93.85;97239.75;4170218;28;20216;-48
2023/04/13 02:37:31;;;;;;;3.13;1.63;;;;;;;6.83;94.24;97243.00;4171727;28;20275;-48
2023/04/13 02:39:33;;;;;;;2.72;1.10;;;;;;;6.81;94.00;97237.00;4176678;28;20203;-48
2023/04/13 02:41:34;;;;;;;2.38;1.38;;;;;;;6.86;94.48;97242.47;4168615;28;20319;-48
2023/04/13 02:43:36;;;;;;;4.75;1.17;;;;;;;6.82;95.29;97234.03;4169173;28;20738;-47
2023/04/13 02:45:38;;;;;;;4.10;1.15;;;;;;;6.81;94.95;97226.13;4177676;28;20292;-49
2023/04/13 02:47:41;;;;;;;2.33;2.03;;;;;;;6.78;94.32;97232.06;4178562;28;20224;-48
2023/04/13 02:49:45;;;;;;;2.67;1.15;;;;;;;6.77;95.24;97225.00;4161078;28;20217;-48
2023/04/13 02:51:46;;;;;;;3.03;1.15;;;;;;;6.79;95.25;97217.41;4169178;28;20216;-47
2023/04/13 02:53:48;;;;;;;1.42;1.15;;;;;;;6.82;95.04;97227.78;4167650;28;20712;-48
2023/04/13 02:55:52;;;;;;;3.75;1.45;;;;;;;6.79;95.31;97220.13;4173101;28;20208;-48
2023/04/13 02:57:54;;;;;;;1.17;1.13;;;;;;;6.80;94.77;97219.03;4168691;28;20227;-48
2023/04/13 02:59:56;;;;;;;1.67;1.20;;;;;;;6.76;96.17;97228.81;4170301;28;20872;-48
2023/04/13 03:01:58;;;;;;;1.38;0.90;;;;;;;6.73;96.37;97237.47;4200772;28;20654;-49
2023/04/13 03:04:01;;;;;;;2.00;1.00;;;;;;;6.71;96.04;97226.03;4170280;28;20242;-48
2023/04/13 03:06:03;;;;;;;3.28;1.42;;;;;;;6.72;96.08;97230.38;4168039;28;20208;-48
2023/04/13 03:08:05;;;;;;;2.67;1.45;;;;;;;6.66;97.11;97234.13;4176150;28;20239;-48
2023/04/13 03:10:07;;;;;;;4.63;1.38;;;;;;;6.70;97.52;97240.69;4161522;28;20254;-48
2023/04/13 03:12:09;;;;;;;3.03;1.00;;;;;;;6.70;96.96;97248.84;4171383;28;20218;-49
2023/04/13 03:14:19;;;;;;;4.10;1.38;;;;;;;6.68;96.83;97237.44;4176446;28;20299;-49
2023/04/13 03:16:21;;;;;;;1.08;0.93;;;;;;;6.63;97.34;97246.31;4170740;28;20243;-48
2023/04/13 03:18:23;;;;;;;1.90;1.15;;;;;;;6.62;97.34;97254.75;4170138;28;20297;-48
2023/04/13 03:20:27;;;;;;;2.47;1.45;;;;;;;6.64;97.61;97252.59;4168837;28;20302;-49
2023/04/13 03:22:29;;;;;;;2.47;1.48;;;;;;;6.62;97.25;97250.13;4170091;28;20212;-49
2023/04/13 03:24:31;;;;;;;1.80;1.13;;;;;;;6.60;97.47;97251.47;4167905;28;20287;-48
2023/04/13 03:26:33;;;;;;;2.78;1.10;;;;;;;6.61;97.51;97253.09;4160699;28;20204;-48
2023/04/13 03:28:35;;;;;;;4.57;1.25;;;;;;;6.58;97.49;97265.31;4170204;28;20735;-48
2023/04/13 03:30:37;;;;;;;1.20;0.80;;;;;;;6.57;97.20;97260.13;4188213;28;20295;-49
2023/04/13 03:32:38;;;;;;;1.65;0.93;;;;;;;6.58;97.24;97270.75;4161268;28;20212;-49
2023/04/13 03:34:42;;;;;;;1.63;1.52;;;;;;;6.55;97.51;97270.44;4177632;28;20215;-47
2023/04/13 03:36:45;;;;;;;5.47;1.40;;;;;;;6.55;97.85;97270.44;4177045;28;20586;-47
2023/04/13 03:38:47;;;;;;;2.05;1.27;;;;;;;6.53;97.71;97267.97;4170269;28;20663;-48
2023/04/13 03:40:48;;;;;;;2.13;1.20;;;;;;;6.54;97.92;97264.19;4174790;28;20242;-48
2023/04/13 03:42:50;;;;;;;7.07;1.83;;;;;;;6.59;97.92;97277.81;4169696;28;20212;-48
2023/04/13 03:44:52;;;;;;;4.13;1.83;;;;;;;6.55;98.35;97275.88;4153730;28;20938;-48
2023/04/13 03:46:54;;;;;;;4.55;1.35;;;;;;;6.57;98.26;97277.25;4175136;28;20259;-48
2023/04/13 03:48:58;;;;;;;4.55;1.30;;;;;;;6.58;97.86;97287.06;4177251;28;20208;-48
2023/04/13 03:51:00;;;;;;;3.63;1.75;;;;;;;6.56;98.40;97285.66;4170408;28;20305;-49
2023/04/13 03:53:02;;;;;;;4.30;1.30;;;;;;;6.58;98.75;97286.22;4170532;28;20740;-48
2023/04/13 03:55:04;;;;;;;3.97;1.60;;;;;;;6.57;99.24;97284.59;4192700;28;20235;-48
2023/04/13 03:57:06;;;;;;;3.58;1.30;;;;;;;6.55;98.71;97287.56;4165899;28;20275;-47
2023/04/13 03:59:07;;;;;;;3.17;1.35;;;;;;;6.54;98.79;97295.94;4168578;28;20217;-48
2023/04/13 04:01:09;;;;;;;8.25;1.70;;;;;;;6.61;98.01;97285.69;4176247;28;20243;-47
2023/04/13 04:03:11;;;;;;;3.17;1.50;;;;;;;6.56;98.76;97307.41;4175198;28;20323;-48
2023/04/13 04:05:13;;;;;;;3.78;1.48;;;;;;;6.55;97.83;97297.63;4184336;28;20680;-47
2023/04/13 04:07:15;;;;;;;3.55;1.60;;;;;;;6.55;98.69;97297.63;4171864;28;20272;-48
2023/04/13 04:09:16;;;;;;;4.93;1.35;;;;;;;6.56;98.66;97291.91;4172570;28;20254;-48
2023/04/13 04:11:18;;;;;;;5.53;1.85;;;;;;;6.56;98.31;97299.25;4155431;28;20235;-48
2023/04/13 04:13:20;;;;;;;8.43;1.27;;;;;;;6.60;98.59;97300.38;4175220;28;20285;-48
2023/04/13 04:15:22;;;;;;;4.00;1.63;;;;;;;6.48;99.13;97307.84;4176022;28;20216;-48
2023/04/13 04:17:24;;;;;;;6.05;1.60;;;;;;;6.54;98.41;97291.34;4182848;28;20239;-47
2023/04/13 04:19:26;;;;;;;5.45;1.38;;;;;;;6.49;98.21;97299.44;4151903;28;20262;-49
2023/04/13 04:21:34;;;;;;;5.60;1.58;;;;;;;6.53;99.01;97299.75;4203299;28;20241;-47
2023/04/13 04:23:38;;;;;;;5.30;1.38;;;;;;;6.47;98.99;97284.47;4170074;28;20223;-49
2023/04/13 04:25:40;;;;;;;4.43;1.65;;;;;;;6.45;99.03;97284.72;4167525;28;20689;-48
2023/04/13 04:27:45;;;;;;;8.57;1.88;;;;;;;6.38;99.11;97292.25;4175618;28;20267;-48
2023/04/13 04:29:48;;;;;;;1.38;1.17;;;;;;;6.34;99.45;97301.97;4170080;28;20235;-47
2023/04/13 04:31:52;;;;;;;2.47;1.35;;;;;;;6.37;99.10;97306.09;4154235;28;20685;-48
2023/04/13 04:33:54;;;;;;;3.25;1.63;;;;;;;6.30;99.36;97297.31;4171021;28;20211;-50
2023/04/13 04:35:56;;;;;;;10.10;1.70;;;;;;;6.38;99.60;97296.84;4169466;28;20204;-48
2023/04/13 04:38:05;;;;;;;5.80;1.55;;;;;;;6.35;99.54;97303.63;4175583;28;20320;-49
2023/04/13 04:40:08;;;;;;;2.47;1.98;;;;;;;6.34;99.35;97303.84;4176774;28;20254;-48
2023/04/13 04:42:11;;;;;;;5.40;2.28;;;;;;;6.25;99.79;97300.78;4170173;28;20204;-48
2023/04/13 04:44:15;;;;;;;14.02;3.97;;;;;;;6.29;99.14;97298.38;4185446;28;20297;-48
2023/04/13 04:46:17;;;;;;;2.83;1.25;;;;;;;6.30;99.38;97300.03;4167442;28;20311;-48
2023/04/13 04:48:19;;;;;;;4.57;1.75;;;;;;;6.27;100.00;97305.94;4183223;28;20220;-48
2023/04/13 04:50:21;;;;;;;4.28;1.50;;;;;;;6.27;99.86;97319.53;4176222;28;20204;-48
2023/04/13 04:52:25;;;;;;;11.50;2.33;;;;;;;6.25;99.50;97302.66;4168519;28;20208;-48
2023/04/13 04:54:27;;;;;;;2.33;1.45;;;;;;;6.29;99.38;97311.97;4168238;28;20656;-49
2023/04/13 04:56:32;;;;;;;8.25;1.55;;;;;;;6.23;99.41;97318.41;4175303;28;20199;-48
2023/04/13 04:58:34;;;;;;;4.68;1.50;;;;;;;6.27;99.43;97323.06;4171119;28;20272;-47
2023/04/13 05:00:36;;;;;;;4.60;1.40;;;;;;;6.30;99.46;97340.75;4185886;28;20200;-47
2023/04/13 05:02:37;;;;;;;5.63;2.03;;;;;;;6.27;99.42;97338.53;4165517;28;20203;-48
2023/04/13 05:04:40;;;;;;;7.82;2.30;;;;;;;6.29;100.00;97337.22;4170129;28;20568;-50
2023/04/13 05:06:43;;;;;;;9.45;1.85;;;;;;;6.29;99.02;97341.84;4188149;28;20257;-47
2023/04/13 05:08:45;;;;;;;5.35;1.60;;;;;;;6.27;99.89;97344.81;4179656;28;20632;-47
2023/04/13 05:10:47;;;;;;;7.57;1.80;;;;;;;6.32;100.00;97341.31;4173320;28;20211;-47
2023/04/13 05:12:49;;;;;;;2.55;1.13;;;;;;;6.26;99.97;97336.91;4171863;28;20211;-48
2023/04/13 05:14:51;;;;;;;3.53;1.83;;;;;;;6.26;100.00;97343.16;4169611;28;20299;-47
2023/04/13 05:16:53;;;;;;;11.40;1.90;;;;;;;6.30;100.00;97348.91;4201558;28;20837;-48
2023/04/13 05:18:55;;;;;;;4.90;1.50;;;;;;;6.26;100.00;97347.75;4169816;28;20238;-48
2023/04/13 05:20:57;;;;;;;4.40;1.63;;;;;;;6.30;100.00;97348.91;4173004;28;20212;-48
2023/04/13 05:22:59;;;;;;;5.97;1.38;;;;;;;6.31;99.82;97355.97;4172906;28;20254;-48
2023/04/13 05:25:01;;;;;;;3.60;1.60;;;;;;;6.30;100.00;97354.34;4174247;28;20223;-49
2023/04/13 05:27:03;;;;;;;26.08;1.98;;;;;;;6.29;100.00;97358.16;4171467;28;20842;-47
2023/04/13 05:29:06;;;;;;;5.30;1.50;;;;;;;6.32;99.75;97363.06;4171022;28;20216;-47
2023/04/13 05:31:09;;;;;;;8.05;2.33;;;;;;;6.38;100.00;97357.47;4170408;28;20745;-48
2023/04/13 05:33:11;;;;;;;14.30;1.60;;;;;;;6.34;99.85;97363.63;4180092;28;20223;-47
2023/04/13 05:35:13;;;;;;;17.83;2.00;;;;;;;6.34;100.00;97366.34;4163142;28;20250;-48
2023/04/13 05:37:15;;;;;;;4.90;2.03;;;;;;;6.34;100.00;97371.78;4194388;28;20231;-48
2023/04/13 05:39:17;;;;;;;6.78;2.25;;;;;;;6.34;100.00;97366.34;4204777;28;20211;-48
2023/04/13 05:41:19;;;;;;;4.50;1.70;;;;;;;6.38;100.00;97370.22;4173962;28;20257;-47
2023/04/13 05:43:21;;;;;;;4.03;1.80;;;;;;;6.38;100.00;97367.50;4175535;28;20295;-48
2023/04/13 05:45:24;;;;;;;6.03;2.38;;;;;;;6.32;100.00;97365.78;4170947;28;20696;-48
2023/04/13 05:47:27;;;;;;;11.30;3.53;;;;;;;6.29;100.00;97371.72;4203146;28;20290;-48
2023/04/13 05:49:29;;;;;;;6.63;2.50;;;;;;;6.34;100.00;97378.03;4167693;28;20678;-48
2023/04/13 05:51:32;;;;;;;11.70;2.17;;;;;;;6.32;100.00;97380.19;4186467;28;20219;-48
2023/04/13 05:53:34;;;;;;;6.88;1.50;;;;;;;6.38;100.00;97372.91;4169727;28;20237;-48
2023/04/13 05:55:36;;;;;;;6.47;3.20;;;;;;;6.31;100.00;97383.16;4204017;28;20211;-48
2023/04/13 05:57:38;;;;;;;8.57;1.45;;;;;;;6.29;100.00;97380.69;4188503;28;20309;-47
2023/04/13 05:59:40;;;;;;;4.78;2.42;;;;;;;6.31;100.00;97383.16;4187838;28;20211;-48
2023/04/13 06:01:41;;;;;;;5.80;2.03;;;;;;;6.36;100.00;97385.94;4172025;28;21200;-48
2023/04/13 06:03:43;;;;;;;3.33;1.40;;;;;;;6.32;100.00;97392.94;4204102;28;20207;-48
2023/04/13 06:05:45;;;;;;;9.25;2.88;;;;;;;6.32;100.00;97401.09;4177782;28;20203;-48
2023/04/13 06:07:47;;;;;;;8.55;2.20;;;;;;;6.29;100.00;97410.56;4172469;28;20228;-48
2023/04/13 06:09:49;;;;;;;6.55;1.98;;;;;;;6.34;100.00;97404.38;4162845;28;20248;-48
2023/04/13 06:11:51;;;;;;;5.05;1.63;;;;;;;6.34;100.00;97409.81;4160848;28;20247;-49
2023/04/13 06:13:53;;;;;;;1.95;1.23;;;;;;;6.30;100.00;97414.91;4162170;28;20212;-48
2023/04/13 06:15:58;;;;;;;4.57;2.03;;;;;;;6.24;100.00;97415.91;4172125;28;20211;-48
2023/04/13 06:18:00;;;;;;;8.95;2.88;;;;;;;6.24;100.00;97418.63;4173956;28;20307;-47
2023/04/13 06:20:05;;;;;;;6.97;1.80;;;;;;;6.28;100.00;97421.69;4184830;28;20755;-49
2023/04/13 06:22:07;;;;;;;9.57;2.20;;;;;;;6.30;100.00;97419.53;4173863;28;20262;-48
2023/04/13 06:24:09;;;;;;;4.68;2.13;;;;;;;6.30;100.00;97430.41;4170782;28;20784;-48
2023/04/13 06:26:11;;;;;;;5.97;1.67;;;;;;;6.37;100.00;97431.03;4187337;28;20581;-48
2023/04/13 06:28:12;;;;;;;7.25;1.60;;;;;;;6.34;100.00;97423.38;4160918;28;20634;-47
2023/04/13 06:30:14;;;;;;;6.32;1.95;;;;;;;6.32;100.00;97430.97;4153964;28;20241;-47
2023/04/13 06:32:16;;;;;;;4.68;1.85;;;;;;;6.29;100.00;97423.31;4168813;28;20219;-48
2023/04/13 06:34:19;;;;;;;6.47;2.05;;;;;;;6.31;100.00;97426.59;4188381;28;20725;-48
2023/04/13 06:36:20;;;;;;;10.40;2.38;;;;;;;6.30;100.00;97424.97;4188540;28;20690;-48
2023/04/13 06:38:22;;;;;;;6.10;1.75;;;;;;;6.34;100.00;97432.38;4168404;28;20236;-48
2023/04/13 06:40:26;;;;;;;5.60;2.05;;;;;;;6.33;100.00;97429.88;4155756;28;20259;-48
2023/04/13 06:42:28;;;;;;;4.35;2.65;;;;;;;6.37;100.00;97428.34;4168361;28;20219;-49
2023/04/13 06:44:31;;;;;;;6.37;2.00;;;;;;;6.29;100.00;97429.56;4168858;28;20841;-49
2023/04/13 06:46:33;;;;;;;4.57;2.33;;;;;;;6.25;100.00;97430.31;4175331;28;20211;-48
2023/04/13 06:48:35;;;;;;;6.88;3.13;;;;;;;6.15;100.00;97420.13;4169521;28;20311;-49
2023/04/13 06:50:37;;;;;;;3.53;1.73;;;;;;;6.18;100.00;97432.38;4190833;28;20203;-48
2023/04/13 06:52:41;;;;;;;7.32;1.63;;;;;;;6.22;100.00;97428.13;4173795;28;20292;-49
2023/04/13 06:54:43;;;;;;;10.85;2.28;;;;;;;6.26;100.00;97434.69;4185997;28;20837;-51
2023/04/13 06:56:45;;;;;;;7.25;2.30;;;;;;;6.20;100.00;97438.38;4170413;28;20204;-49
2023/04/13 06:58:47;;;;;;;6.45;2.28;;;;;;;6.16;100.00;97429.09;4173320;28;20302;-52
2023/04/13 07:00:48;;;;;;;10.18;2.63;;;;;;;6.19;100.00;97429.44;4167058;28;20233;-48
2023/04/13 07:02:50;;;;;;;6.97;2.00;;;;;;;6.28;100.00;97438.00;4173237;28;20664;-49
2023/04/13 07:04:52;;;;;;;5.88;2.13;;;;;;;6.26;100.00;97430.09;4160257;28;20567;-49
2023/04/13 07:06:54;;;;;;;12.93;2.00;;;;;;;6.22;100.00;97433.53;4171148;28;20236;-49
2023/04/13 07:08:56;;;;;;;10.65;3.08;;;;;;;6.33;100.00;97435.31;4176138;28;20219;-49
2023/04/13 07:10:58;;;;;;;8.70;1.95;;;;;;;6.30;100.00;97446.69;4168581;28;20204;-50
2023/04/13 07:13:00;;;;;;;5.00;1.95;;;;;;;6.32;100.00;97439.13;4169633;28;20607;-50
2023/04/13 07:15:04;;;;;;;4.60;2.33;;;;;;;6.27;100.00;97442.59;4173874;28;20212;-48
2023/04/13 07:17:07;;;;;;;6.80;2.65;;;;;;;6.28;100.00;97440.69;4169098;28;20238;-51
2023/04/13 07:19:12;;;;;;;4.70;2.53;;;;;;;6.31;100.00;97445.63;4175401;28;20228;-49
2023/04/13 07:21:13;;;;;;;4.50;2.25;;;;;;;6.36;100.00;97448.41;4184755;28;20230;-50
2023/04/13 07:23:15;;;;;;;9.05;2.63;;;;;;;6.37;100.00;97450.06;4186751;28;20230;-48
2023/04/13 07:25:20;;;;;;;7.97;2.78;;;;;;;6.34;100.00;97447.81;4168371;28;20242;-51
2023/04/13 07:27:22;;;;;;;4.68;2.40;;;;;;;6.36;100.00;97451.13;4168656;28;20236;-50
2023/04/13 07:29:24;;;;;;;7.72;2.30;;;;;;;6.44;100.00;97445.28;4187433;28;20731;-50
2023/04/13 07:31:26;;;;;;;7.60;2.60;;;;;;;6.45;100.00;97450.47;4172300;28;20215;-49
2023/04/13 07:33:28;;;;;;;5.75;1.90;;;;;;;6.50;100.00;97453.22;4184060;28;20239;-49
2023/04/13 07:35:30;;;;;;;6.00;2.25;;;;;;;6.56;100.00;97456.88;4169462;28;20205;-49
2023/04/13 07:37:31;;;;;;;4.50;2.40;;;;;;;6.59;100.00;97461.78;4150976;28;20232;-50
2023/04/13 07:39:34;;;;;;;7.60;1.83;;;;;;;6.60;100.00;97458.00;4173238;28;20207;-49
2023/04/13 07:41:36;;;;;;;12.13;2.05;;;;;;;6.57;100.00;97461.22;4157565;28;20671;-50
2023/04/13 07:43:38;;;;;;;6.32;2.45;;;;;;;6.58;100.00;97465.56;4170512;28;21119;-49
2023/04/13 07:45:40;;;;;;;6.38;2.03;;;;;;;6.63;100.00;97474.63;4147887;28;20706;-51
2023/04/13 07:47:42;;;;;;;4.85;1.50;;;;;;;6.58;100.00;97481.88;4165890;28;20251;-51
2023/04/13 07:49:44;;;;;;;4.15;1.92;;;;;;;6.62;100.00;97483.03;4199488;28;20202;-51
2023/04/13 07:51:45;;;;;;;6.63;2.00;;;;;;;6.71;100.00;97486.97;4166704;28;20293;-51
2023/04/13 07:53:47;;;;;;;5.00;1.65;;;;;;;6.54;100.00;97481.56;4173306;28;20231;-50
2023/04/13 07:55:50;;;;;;;4.03;2.10;;;;;;;6.55;100.00;97493.28;4169151;28;20251;-51
2023/04/13 07:57:51;;;;;;;3.05;1.92;;;;;;;6.49;100.00;97495.06;4168766;28;20220;-49
2023/04/13 07:59:53;;;;;;;5.43;1.80;;;;;;;6.54;100.00;97497.03;4170091;28;20203;-49
2023/04/13 08:01:56;;;;;;;4.68;2.30;;;;;;;6.53;100.00;97504.38;4183129;28;20200;-49
2023/04/13 08:03:59;;;;;;;6.88;1.92;;;;;;;6.53;100.00;97506.25;4167569;28;20219;-49
2023/04/13 08:06:05;;;;;;;5.57;1.52;;;;;;;6.51;100.00;97508.41;4171702;28;20736;-48
2023/04/13 08:08:06;;;;;;;9.07;2.35;;;;;;;6.51;100.00;97513.84;4181956;28;20219;-49
2023/04/13 08:10:08;;;;;;;6.25;1.67;;;;;;;6.33;100.00;97511.38;4170926;28;20250;-48
2023/04/13 08:12:10;;;;;;;5.07;1.77;;;;;;;6.30;100.00;97511.88;4156527;28;20586;-49
2023/04/13 08:14:12;;;;;;;4.38;1.77;;;;;;;6.28;100.00;97519.47;4168528;28;20200;-50
2023/04/13 08:16:16;;;;;;;4.53;2.28;;;;;;;6.33;100.00;97528.50;4169440;28;20211;-51
2023/04/13 08:18:19;;;;;;;4.47;1.60;;;;;;;6.20;100.00;97526.13;4169585;28;20648;-49
2023/04/13 08:20:21;;;;;;;4.25;2.30;;;;;;;6.36;100.00;97532.63;4156290;28;20573;-51
2023/04/13 08:22:25;;;;;;;4.45;1.98;;;;;;;6.28;100.00;97535.78;4169628;28;20239;-49
2023/04/13 08:24:28;;;;;;;2.53;1.40;;;;;;;6.31;100.00;97535.25;4169342;28;20288;-49
2023/04/13 08:26:30;;;;;;;5.70;1.70;;;;;;;6.36;100.00;97536.16;4171541;28;20207;-51
2023/04/13 08:28:31;;;;;;;8.45;1.67;;;;;;;6.42;100.00;97531.66;4177808;28;20258;-49
2023/04/13 08:30:33;;;;;;;2.25;1.65;;;;;;;6.51;100.00;97530.16;4170354;28;20666;-49
2023/04/13 08:32:35;;;;;;;4.32;1.77;;;;;;;6.51;100.00;97527.44;4170893;28;20204;-48
2023/04/13 08:34:37;;;;;;;8.68;2.65;;;;;;;6.56;100.00;97522.88;4203410;28;20214;-48
2023/04/13 08:36:40;;;;;;;4.80;2.22;;;;;;;6.61;100.00;97527.56;4169593;28;20239;-47
2023/04/13 08:38:47;;;;;;;3.72;1.60;;;;;;;6.75;100.00;97537.03;4151992;28;20303;-47
2023/04/13 08:40:49;;;;;;;5.93;1.92;;;;;;;6.82;100.00;97534.97;4171528;28;20343;-48
2023/04/13 08:42:55;;;;;;;2.92;1.60;;;;;;;6.90;100.00;97534.53;4167203;28;20209;-47
2023/04/13 08:45:04;;;;;;;7.45;3.95;;;;;;;6.94;100.00;97531.06;4191397;28;20269;-47
2023/04/13 08:47:06;;;;;;;4.25;2.78;;;;;;;6.96;100.00;97536.25;4201637;28;20227;-48
2023/04/13 08:49:09;;;;;;;3.40;1.80;;;;;;;7.01;100.00;97531.69;4154119;28;20204;-47
2023/04/13 08:51:15;;;;;;;5.13;1.88;;;;;;;7.07;100.00;97536.13;4171178;28;20533;-48
2023/04/13 08:53:23;;;;;;;7.43;1.98;;;;;;;6.96;100.00;97541.69;4169067;28;20247;-47
2023/04/13 08:55:25;;;;;;;6.30;2.30;;;;;;;7.01;100.00;97537.13;4168691;28;20207;-47
2023/04/13 08:57:28;;;;;;;5.43;1.90;;;;;;;7.02;100.00;97537.97;4173730;28;20224;-47
2023/04/13 08:59:30;;;;;;;3.33;1.63;;;;;;;7.18;100.00;97529.75;4176120;28;20294;-47
2023/04/13 09:01:35;;;;;;;5.78;1.63;;;;;;;7.18;100.00;97532.47;4176100;28;20231;-47
2023/04/13 09:03:53;;;;;;;4.50;1.65;;;;;;;7.22;100.00;97530.88;4170327;28;20212;-47
2023/04/13 09:06:03;;;;;;;10.02;1.90;;;;;;;7.41;100.00;97528.69;4171874;28;20646;-48
2023/04/13 09:08:06;;;;;;;2.92;1.35;;;;;;;7.42;100.00;97533.03;4176136;28;20289;-47
2023/04/13 09:10:15;;;;;;;3.95;1.55;;;;;;;7.46;100.00;97534.16;4154116;28;20213;-47
2023/04/13 09:12:19;;;;;;;2.80;1.40;;;;;;;7.68;100.00;97529.53;4176911;28;20215;-47
2023/04/13 09:14:21;;;;;;;2.78;2.33;;;;;;;7.85;100.00;97533.81;4159101;28;20240;-47
2023/04/13 09:16:23;;;;;;;3.28;1.67;;;;;;;7.81;100.00;97542.75;4168847;28;20216;-47
2023/04/13 09:18:26;;;;;;;4.55;1.85;;;;;;;7.95;100.00;97536.63;4152626;28;20664;-47
2023/04/13 09:20:28;;;;;;;2.42;1.90;;;;;;;7.68;100.00;97532.25;4170659;28;20322;-47
2023/04/13 09:22:30;;;;;;;3.33;1.95;;;;;;;7.83;100.00;97546.03;4157438;28;20201;-46
2023/04/13 09:24:39;;;;;;;10.95;1.95;;;;;;;7.80;100.00;97535.63;4166693;28;20208;-47
2023/04/13 09:26:46;;;;;;;7.57;1.98;;;;;;;7.96;100.00;97537.44;4167555;28;20654;-46
2023/04/13 09:28:51;;;;;;;5.03;2.42;;;;;;;7.85;100.00;97549.31;4168902;28;20282;-46
2023/04/13 09:31:04;;;;;;;3.92;1.40;;;;;;;7.98;100.00;97548.91;4185636;28;20626;-46
2023/04/13 09:33:08;;;;;;;5.75;2.30;;;;;;;8.02;100.00;97544.59;4171170;28;20692;-46
2023/04/13 09:35:11;;;;;;;7.35;2.47;;;;;;;8.06;100.00;97541.09;4166494;28;20211;-46
2023/04/13 09:37:13;;;;;;;6.22;2.22;;;;;;;7.90;100.00;97546.66;4181647;28;20277;-47
2023/04/13 09:39:16;;;;;;;5.32;2.25;;;;;;;7.93;100.00;97546.13;4169469;28;22198;-47
2023/04/13 09:41:48;;;;;;;8.88;2.63;;;;;;;7.85;100.00;97549.31;4169229;28;20216;-46
2023/04/13 09:44:02;;;;;;;10.07;2.10;;;;;;;7.86;100.00;97546.34;4168819;28;20212;-46
2023/04/13 09:46:11;;;;;;;8.35;1.77;;;;;;;7.88;100.00;97544.19;4156193;28;20224;-46